Terminal Aerodrome Forecast
Issued by NWS Cleveland, OH

Home | Current Version | Previous Version | Text Only | Print | Product List | Glossary Off
Versions: 1 2 3 4 5 6 7 8 9 10 11 12 13 14 15 16 17 18 19 20 21 22 23 24 25

892
FTUS41 KCLE 172015 AAA
TAFERI
TAF AMD
KERI 172015Z 1720/1818 26014G22KT 4SM -SHSN OVC025
      TEMPO 1720/1724 1 1/2SM -SHSN BKN015
     FM180000 25015G25KT P6SM OVC025
     FM181500 25006KT P6SM SCT050=

USA.gov is the U.S. government's official web portal to all federal, state and local government web resources and services.